sensor_id;sensor_type;location;lat;lon;timestamp;pressure;altitude;pressure_sealevel;temperature;humidity
10466;BME280;5280;42.600;23.556;2023-03-11T00:00:46;91595.22;;;10.54;100.00
10466;BME280;5280;42.600;23.556;2023-03-11T00:03:15;91601.63;;;10.52;100.00
10466;BME280;5280;42.600;23.556;2023-03-11T00:05:46;91604.44;;;10.58;100.00
10466;BME280;5280;42.600;23.556;2023-03-11T00:08:16;91604.09;;;10.61;100.00
10466;BME280;5280;42.600;23.556;2023-03-11T00:10:45;91610.41;;;10.60;100.00
10466;BME280;5280;42.600;23.556;2023-03-11T00:13:13;91601.47;;;10.61;100.00
10466;BME280;5280;42.600;23.556;2023-03-11T00:15:41;91597.69;;;10.64;100.00
10466;BME280;5280;42.600;23.556;2023-03-11T00:18:10;91583.81;;;10.54;100.00
10466;BME280;5280;42.600;23.556;2023-03-11T00:20:39;91598.66;;;10.63;100.00
10466;BME280;5280;42.600;23.556;2023-03-11T00:23:07;91578.56;;;10.46;100.00
10466;BME280;5280;42.600;23.556;2023-03-11T00:25:37;91615.19;;;10.65;100.00
10466;BME280;5280;42.600;23.556;2023-03-11T00:28:04;91611.72;;;10.64;100.00
10466;BME280;5280;42.600;23.556;2023-03-11T00:30:32;91613.84;;;10.53;100.00
10466;BME280;5280;42.600;23.556;2023-03-11T00:32:59;91631.34;;;10.54;100.00
10466;BME280;5280;42.600;23.556;2023-03-11T00:35:29;91657.75;;;10.38;100.00
10466;BME280;5280;42.600;23.556;2023-03-11T00:37:57;91605.84;;;9.96;100.00
10466;BME280;5280;42.600;23.556;2023-03-11T00:40:28;91678.03;;;10.21;100.00
10466;BME280;5280;42.600;23.556;2023-03-11T00:42:56;91653.97;;;9.90;100.00
10466;BME280;5280;42.600;23.556;2023-03-11T00:45:23;91643.91;;;9.85;100.00
10466;BME280;5280;42.600;23.556;2023-03-11T00:47:51;91675.44;;;9.95;100.00
10466;BME280;5280;42.600;23.556;2023-03-11T00:50:20;91661.72;;;9.91;100.00
10466;BME280;5280;42.600;23.556;2023-03-11T00:52:49;91635.94;;;9.69;100.00
10466;BME280;5280;42.600;23.556;2023-03-11T00:55:18;91659.88;;;9.84;100.00
10466;BME280;5280;42.600;23.556;2023-03-11T00:57:45;91668.16;;;9.97;100.00
10466;BME280;5280;42.600;23.556;2023-03-11T01:00:14;91640.09;;;9.80;100.00
10466;BME280;5280;42.600;23.556;2023-03-11T01:02:41;91646.75;;;10.00;100.00
10466;BME280;5280;42.600;23.556;2023-03-11T01:05:08;91640.50;;;10.01;100.00
10466;BME280;5280;42.600;23.556;2023-03-11T01:07:35;91606.00;;;9.94;100.00
10466;BME280;5280;42.600;23.556;2023-03-11T01:10:08;91620.88;;;10.12;100.00
10466;BME280;5280;42.600;23.556;2023-03-11T01:12:35;91590.66;;;10.06;100.00
10466;BME280;5280;42.600;23.556;2023-03-11T01:15:09;91596.97;;;10.13;100.00
10466;BME280;5280;42.600;23.556;2023-03-11T01:17:40;91587.06;;;10.15;100.00
10466;BME280;5280;42.600;23.556;2023-03-11T01:20:08;91581.94;;;10.14;100.00
10466;BME280;5280;42.600;23.556;2023-03-11T01:22:36;91495.97;;;9.55;100.00
10466;BME280;5280;42.600;23.556;2023-03-11T01:25:03;91567.41;;;10.02;100.00
10466;BME280;5280;42.600;23.556;2023-03-11T01:27:31;91570.03;;;10.02;100.00
10466;BME280;5280;42.600;23.556;2023-03-11T01:29:58;91569.56;;;9.90;100.00
10466;BME280;5280;42.600;23.556;2023-03-11T01:32:25;91567.06;;;9.80;100.00
10466;BME280;5280;42.600;23.556;2023-03-11T01:34:52;91569.03;;;9.86;100.00
10466;BME280;5280;42.600;23.556;2023-03-11T01:37:19;91569.84;;;9.87;100.00
10466;BME280;5280;42.600;23.556;2023-03-11T01:39:46;91554.38;;;9.84;100.00
10466;BME280;5280;42.600;23.556;2023-03-11T01:42:13;91546.09;;;9.71;100.00
10466;BME280;5280;42.600;23.556;2023-03-11T01:44:41;91517.06;;;9.55;100.00
10466;BME280;5280;42.600;23.556;2023-03-11T01:47:32;91542.44;;;9.56;100.00
10466;BME280;5280;42.600;23.556;2023-03-11T01:49:59;91519.34;;;9.49;100.00
10466;BME280;5280;42.600;23.556;2023-03-11T01:52:29;91514.69;;;9.35;100.00
10466;BME280;5280;42.600;23.556;2023-03-11T01:54:56;91504.44;;;9.32;100.00
10466;BME280;5280;42.600;23.556;2023-03-11T01:57:23;91484.19;;;9.33;100.00
10466;BME280;5280;42.600;23.556;2023-03-11T01:59:55;91499.72;;;9.36;100.00
10466;BME280;5280;42.600;23.556;2023-03-11T02:02:25;91502.22;;;9.45;100.00
10466;BME280;5280;42.600;23.556;2023-03-11T02:04:54;91499.84;;;9.34;100.00
10466;BME280;5280;42.600;23.556;2023-03-11T02:07:21;91517.00;;;9.46;100.00
10466;BME280;5280;42.600;23.556;2023-03-11T02:09:48;91488.19;;;9.53;100.00
10466;BME280;5280;42.600;23.556;2023-03-11T02:12:15;91508.66;;;9.59;100.00
10466;BME280;5280;42.600;23.556;2023-03-11T02:14:44;91517.53;;;9.58;100.00
10466;BME280;5280;42.600;23.556;2023-03-11T02:17:14;91492.63;;;9.36;100.00
10466;BME280;5280;42.600;23.556;2023-03-11T02:19:56;91530.44;;;9.61;100.00
10466;BME280;5280;42.600;23.556;2023-03-11T02:22:25;91535.22;;;9.66;100.00
10466;BME280;5280;42.600;23.556;2023-03-11T02:25:00;91529.06;;;9.57;100.00
10466;BME280;5280;42.600;23.556;2023-03-11T02:27:30;91507.91;;;9.25;100.00
10466;BME280;5280;42.600;23.556;2023-03-11T02:29:59;91555.94;;;9.52;100.00
10466;BME280;5280;42.600;23.556;2023-03-11T02:32:27;91561.53;;;9.58;100.00
10466;BME280;5280;42.600;23.556;2023-03-11T02:34:54;91573.25;;;9.63;100.00
10466;BME280;5280;42.600;23.556;2023-03-11T02:37:21;91515.31;;;9.29;100.00
10466;BME280;5280;42.600;23.556;2023-03-11T02:39:49;91577.22;;;9.67;100.00
10466;BME280;5280;42.600;23.556;2023-03-11T02:42:18;91578.38;;;9.65;100.00
10466;BME280;5280;42.600;23.556;2023-03-11T02:44:56;91590.75;;;9.64;100.00
10466;BME280;5280;42.600;23.556;2023-03-11T02:47:24;91576.53;;;9.57;100.00
10466;BME280;5280;42.600;23.556;2023-03-11T02:49:53;91584.50;;;9.65;100.00
10466;BME280;5280;42.600;23.556;2023-03-11T02:52:21;91596.22;;;9.71;100.00
10466;BME280;5280;42.600;23.556;2023-03-11T02:54:48;91613.31;;;9.67;100.00
10466;BME280;5280;42.600;23.556;2023-03-11T02:57:14;91613.16;;;9.68;100.00
10466;BME280;5280;42.600;23.556;2023-03-11T02:59:41;91610.69;;;9.67;100.00
10466;BME280;5280;42.600;23.556;2023-03-11T03:02:09;91533.09;;;9.19;100.00
10466;BME280;5280;42.600;23.556;2023-03-11T03:04:36;91601.44;;;9.63;100.00
10466;BME280;5280;42.600;23.556;2023-03-11T03:07:03;91602.13;;;9.65;100.00
10466;BME280;5280;42.600;23.556;2023-03-11T03:09:30;91543.94;;;9.16;100.00
10466;BME280;5280;42.600;23.556;2023-03-11T03:11:57;91599.78;;;9.54;100.00
10466;BME280;5280;42.600;23.556;2023-03-11T03:14:24;91614.13;;;9.59;100.00
10466;BME280;5280;42.600;23.556;2023-03-11T03:16:51;91598.09;;;9.52;100.00
10466;BME280;5280;42.600;23.556;2023-03-11T03:19:19;91557.66;;;9.28;100.00
10466;BME280;5280;42.600;23.556;2023-03-11T03:21:46;91598.63;;;9.56;100.00
10466;BME280;5280;42.600;23.556;2023-03-11T03:24:14;91592.53;;;9.56;100.00
10466;BME280;5280;42.600;23.556;2023-03-11T03:26:40;91597.69;;;9.65;100.00
10466;BME280;5280;42.600;23.556;2023-03-11T03:29:07;91584.31;;;9.67;100.00
10466;BME280;5280;42.600;23.556;2023-03-11T03:31:34;91582.84;;;9.72;100.00
10466;BME280;5280;42.600;23.556;2023-03-11T03:34:01;91567.50;;;9.68;100.00
10466;BME280;5280;42.600;23.556;2023-03-11T03:36:29;91573.25;;;9.63;100.00
10466;BME280;5280;42.600;23.556;2023-03-11T03:38:56;91564.72;;;9.61;100.00
10466;BME280;5280;42.600;23.556;2023-03-11T03:41:23;91579.69;;;9.61;100.00
10466;BME280;5280;42.600;23.556;2023-03-11T03:43:50;91564.59;;;9.37;100.00
10466;BME280;5280;42.600;23.556;2023-03-11T03:46:19;91568.41;;;9.42;100.00
10466;BME280;5280;42.600;23.556;2023-03-11T03:48:46;91575.66;;;9.40;100.00
10466;BME280;5280;42.600;23.556;2023-03-11T03:51:13;91568.88;;;9.38;100.00
10466;BME280;5280;42.600;23.556;2023-03-11T03:53:42;91571.31;;;9.23;100.00
10466;BME280;5280;42.600;23.556;2023-03-11T03:56:13;91580.88;;;9.32;100.00
10466;BME280;5280;42.600;23.556;2023-03-11T03:58:40;91562.41;;;9.24;100.00
10466;BME280;5280;42.600;23.556;2023-03-11T04:01:08;91580.41;;;9.37;100.00
10466;BME280;5280;42.600;23.556;2023-03-11T04:03:36;91586.69;;;9.36;100.00
10466;BME280;5280;42.600;23.556;2023-03-11T04:06:07;91583.25;;;9.43;100.00
10466;BME280;5280;42.600;23.556;2023-03-11T04:08:35;91573.53;;;9.44;100.00
10466;BME280;5280;42.600;23.556;2023-03-11T04:11:03;91587.56;;;9.52;100.00
10466;BME280;5280;42.600;23.556;2023-03-11T04:13:30;91586.44;;;9.55;100.00
10466;BME280;5280;42.600;23.556;2023-03-11T04:16:02;91594.00;;;9.58;100.00
10466;BME280;5280;42.600;23.556;2023-03-11T04:18:29;91590.06;;;9.54;100.00
10466;BME280;5280;42.600;23.556;2023-03-11T04:20:55;91590.72;;;9.56;100.00
10466;BME280;5280;42.600;23.556;2023-03-11T04:23:22;91594.84;;;9.59;100.00
10466;BME280;5280;42.600;23.556;2023-03-11T04:25:49;91591.38;;;9.58;100.00
10466;BME280;5280;42.600;23.556;2023-03-11T04:28:17;91589.41;;;9.60;100.00
10466;BME280;5280;42.600;23.556;2023-03-11T04:30:44;91597.16;;;9.62;100.00
10466;BME280;5280;42.600;23.556;2023-03-11T04:33:11;91581.78;;;9.41;100.00
10466;BME280;5280;42.600;23.556;2023-03-11T04:35:38;91585.56;;;9.46;100.00
10466;BME280;5280;42.600;23.556;2023-03-11T04:38:04;91586.72;;;9.52;100.00
10466;BME280;5280;42.600;23.556;2023-03-11T04:40:31;91588.53;;;9.43;100.00
10466;BME280;5280;42.600;23.556;2023-03-11T04:42:58;91586.72;;;9.44;100.00
10466;BME280;5280;42.600;23.556;2023-03-11T04:45:26;91579.63;;;9.44;100.00
10466;BME280;5280;42.600;23.556;2023-03-11T04:47:53;91577.47;;;9.40;100.00
10466;BME280;5280;42.600;23.556;2023-03-11T04:50:20;91575.50;;;9.42;100.00
10466;BME280;5280;42.600;23.556;2023-03-11T04:52:47;91577.66;;;9.46;100.00
10466;BME280;5280;42.600;23.556;2023-03-11T04:55:14;91565.97;;;9.41;100.00
10466;BME280;5280;42.600;23.556;2023-03-11T04:57:42;91583.59;;;9.48;100.00
10466;BME280;5280;42.600;23.556;2023-03-11T05:00:11;91557.66;;;9.28;100.00
10466;BME280;5280;42.600;23.556;2023-03-11T05:02:40;91585.75;;;9.45;100.00
10466;BME280;5280;42.600;23.556;2023-03-11T05:05:08;91588.88;;;9.48;100.00
10466;BME280;5280;42.600;23.556;2023-03-11T05:07:35;91570.69;;;9.37;100.00
10466;BME280;5280;42.600;23.556;2023-03-11T05:10:03;91594.81;;;9.50;100.00
10466;BME280;5280;42.600;23.556;2023-03-11T05:12:30;91602.25;;;9.55;100.00
10466;BME280;5280;42.600;23.556;2023-03-11T05:14:57;91600.25;;;9.57;100.00
10466;BME280;5280;42.600;23.556;2023-03-11T05:17:23;91604.41;;;9.60;100.00
10466;BME280;5280;42.600;23.556;2023-03-11T05:19:52;91608.72;;;9.61;100.00
10466;BME280;5280;42.600;23.556;2023-03-11T05:22:19;91612.31;;;9.60;100.00
10466;BME280;5280;42.600;23.556;2023-03-11T05:24:47;91603.09;;;9.64;100.00
10466;BME280;5280;42.600;23.556;2023-03-11T05:27:14;91583.94;;;9.54;100.00
10466;BME280;5280;42.600;23.556;2023-03-11T05:29:44;91590.88;;;9.55;100.00
10466;BME280;5280;42.600;23.556;2023-03-11T05:32:11;91567.41;;;9.35;100.00
10466;BME280;5280;42.600;23.556;2023-03-11T05:34:38;91631.16;;;9.73;100.00
10466;BME280;5280;42.600;23.556;2023-03-11T05:37:07;91629.50;;;9.72;100.00
10466;BME280;5280;42.600;23.556;2023-03-11T05:39:34;91622.06;;;9.67;100.00
10466;BME280;5280;42.600;23.556;2023-03-11T05:42:02;91613.63;;;9.56;100.00
10466;BME280;5280;42.600;23.556;2023-03-11T05:44:30;91629.84;;;9.77;100.00
10466;BME280;5280;42.600;23.556;2023-03-11T05:46:56;91634.63;;;9.81;100.00
10466;BME280;5280;42.600;23.556;2023-03-11T05:49:23;91635.13;;;9.77;100.00
10466;BME280;5280;42.600;23.556;2023-03-11T05:51:50;91650.66;;;9.88;100.00
10466;BME280;5280;42.600;23.556;2023-03-11T05:54:20;91652.66;;;9.86;100.00
10466;BME280;5280;42.600;23.556;2023-03-11T05:56:46;91628.16;;;9.68;100.00
10466;BME280;5280;42.600;23.556;2023-03-11T05:59:15;91655.28;;;9.86;100.00
10466;BME280;5280;42.600;23.556;2023-03-11T06:01:42;91644.19;;;9.74;100.00
10466;BME280;5280;42.600;23.556;2023-03-11T06:04:10;91667.00;;;9.91;100.00
10466;BME280;5280;42.600;23.556;2023-03-11T06:06:37;91668.16;;;9.89;100.00
10466;BME280;5280;42.600;23.556;2023-03-11T06:09:04;91673.44;;;9.97;100.00
10466;BME280;5280;42.600;23.556;2023-03-11T06:11:32;91607.69;;;9.54;100.00
10466;BME280;5280;42.600;23.556;2023-03-11T06:13:59;91666.53;;;9.96;100.00
10466;BME280;5280;42.600;23.556;2023-03-11T06:16:26;91672.78;;;9.95;100.00
10466;BME280;5280;42.600;23.556;2023-03-11T06:18:52;91668.16;;;9.89;100.00
10466;BME280;5280;42.600;23.556;2023-03-11T06:21:21;91668.50;;;9.94;100.00
10466;BME280;5280;42.600;23.556;2023-03-11T06:23:49;91679.41;;;9.99;100.00
10466;BME280;5280;42.600;23.556;2023-03-11T06:26:18;91670.16;;;10.03;100.00
10466;BME280;5280;42.600;23.556;2023-03-11T06:28:48;91672.81;;;10.03;100.00
10466;BME280;5280;42.600;23.556;2023-03-11T06:31:16;91668.69;;;10.01;100.00
10466;BME280;5280;42.600;23.556;2023-03-11T06:33:45;91687.75;;;10.20;100.00
10466;BME280;5280;42.600;23.556;2023-03-11T06:36:14;91676.81;;;10.15;100.00
10466;BME280;5280;42.600;23.556;2023-03-11T06:38:43;91684.97;;;10.30;100.00
10466;BME280;5280;42.600;23.556;2023-03-11T06:41:11;91679.69;;;10.38;100.00
10466;BME280;5280;42.600;23.556;2023-03-11T06:43:38;91682.69;;;10.43;100.00
10466;BME280;5280;42.600;23.556;2023-03-11T06:46:11;91680.19;;;10.42;100.00
10466;BME280;5280;42.600;23.556;2023-03-11T06:48:38;91677.25;;;10.45;100.00
10466;BME280;5280;42.600;23.556;2023-03-11T06:51:05;91681.50;;;10.38;100.00
10466;BME280;5280;42.600;23.556;2023-03-11T06:53:32;91676.25;;;10.46;100.00
10466;BME280;5280;42.600;23.556;2023-03-11T06:56:00;91663.69;;;10.48;100.00
10466;BME280;5280;42.600;23.556;2023-03-11T06:58:28;91670.66;;;10.65;100.00
10466;BME280;5280;42.600;23.556;2023-03-11T07:00:59;91675.44;;;10.77;100.00
10466;BME280;5280;42.600;23.556;2023-03-11T07:03:28;91659.44;;;10.79;100.00
10466;BME280;5280;42.600;23.556;2023-03-11T07:05:55;91670.50;;;10.91;100.00
10466;BME280;5280;42.600;23.556;2023-03-11T07:08:22;91663.56;;;10.82;100.00
10466;BME280;5280;42.600;23.556;2023-03-11T07:10:58;91671.81;;;10.95;100.00
10466;BME280;5280;42.600;23.556;2023-03-11T07:13:26;91655.13;;;10.78;100.00
10466;BME280;5280;42.600;23.556;2023-03-11T07:16:03;91667.38;;;10.95;100.00
10466;BME280;5280;42.600;23.556;2023-03-11T07:18:32;91627.72;;;10.63;100.00
10466;BME280;5280;42.600;23.556;2023-03-11T07:21:00;91658.94;;;10.92;100.00
10466;BME280;5280;42.600;23.556;2023-03-11T07:23:27;91666.22;;;10.90;100.00
10466;BME280;5280;42.600;23.556;2023-03-11T07:25:54;91644.75;;;10.85;100.00
10466;BME280;5280;42.600;23.556;2023-03-11T07:28:22;91670.00;;;10.95;100.00
10466;BME280;5280;42.600;23.556;2023-03-11T07:30:49;91662.75;;;11.05;100.00
10466;BME280;5280;42.600;23.556;2023-03-11T07:33:16;91656.78;;;11.03;100.00
10466;BME280;5280;42.600;23.556;2023-03-11T07:35:45;91657.75;;;11.18;100.00
10466;BME280;5280;42.600;23.556;2023-03-11T07:38:14;91656.75;;;11.28;100.00
10466;BME280;5280;42.600;23.556;2023-03-11T07:40:41;91648.78;;;11.36;100.00
10466;BME280;5280;42.600;23.556;2023-03-11T07:43:09;91641.34;;;11.47;100.00
10466;BME280;5280;42.600;23.556;2023-03-11T07:45:36;91622.34;;;11.44;100.00
10466;BME280;5280;42.600;23.556;2023-03-11T07:48:04;91642.94;;;11.56;100.00
10466;BME280;5280;42.600;23.556;2023-03-11T07:50:31;91639.47;;;11.56;100.00
10466;BME280;5280;42.600;23.556;2023-03-11T07:52:59;91643.16;;;11.55;100.00
10466;BME280;5280;42.600;23.556;2023-03-11T07:55:25;91638.00;;;11.53;100.00
10466;BME280;5280;42.600;23.556;2023-03-11T07:57:52;91632.69;;;11.61;100.00
10466;BME280;5280;42.600;23.556;2023-03-11T08:00:19;91618.00;;;11.51;100.00
10466;BME280;5280;42.600;23.556;2023-03-11T08:02:49;91616.69;;;11.55;96.47
10466;BME280;5280;42.600;23.556;2023-03-11T08:05:16;91623.81;;;11.54;91.53
10466;BME280;5280;42.600;23.556;2023-03-11T08:07:45;91607.81;;;11.40;91.61
10466;BME280;5280;42.600;23.556;2023-03-11T08:10:13;91596.78;;;11.12;93.09
10466;BME280;5280;42.600;23.556;2023-03-11T08:12:40;91615.28;;;11.28;93.72
10466;BME280;5280;42.600;23.556;2023-03-11T08:15:08;91611.28;;;11.40;96.47
10466;BME280;5280;42.600;23.556;2023-03-11T08:17:35;91602.00;;;11.36;95.17
10466;BME280;5280;42.600;23.556;2023-03-11T08:20:02;91596.59;;;11.30;96.87
10466;BME280;5280;42.600;23.556;2023-03-11T08:22:33;91600.19;;;11.45;94.25
10466;BME280;5280;42.600;23.556;2023-03-11T08:25:00;91593.25;;;11.44;94.74
10466;BME280;5280;42.600;23.556;2023-03-11T08:27:28;91595.06;;;11.43;95.74
10466;BME280;5280;42.600;23.556;2023-03-11T08:29:55;91591.59;;;11.43;95.15
10466;BME280;5280;42.600;23.556;2023-03-11T08:32:21;91583.91;;;11.64;98.82
10466;BME280;5280;42.600;23.556;2023-03-11T08:34:48;91581.91;;;11.74;98.41
10466;BME280;5280;42.600;23.556;2023-03-11T08:37:15;91570.75;;;11.87;95.09
10466;BME280;5280;42.600;23.556;2023-03-11T08:39:42;91542.16;;;11.90;91.07
10466;BME280;5280;42.600;23.556;2023-03-11T08:42:09;91567.44;;;12.16;91.84
10466;BME280;5280;42.600;23.556;2023-03-11T08:44:37;91549.81;;;12.08;91.51
10466;BME280;5280;42.600;23.556;2023-03-11T08:47:04;91557.56;;;12.32;92.49
10466;BME280;5280;42.600;23.556;2023-03-11T08:49:31;91556.50;;;12.41;88.94
10466;BME280;5280;42.600;23.556;2023-03-11T08:51:58;91544.75;;;12.44;85.10
10466;BME280;5280;42.600;23.556;2023-03-11T08:54:25;91539.25;;;12.45;86.49
10466;BME280;5280;42.600;23.556;2023-03-11T08:56:51;91548.97;;;12.53;83.11
10466;BME280;5280;42.600;23.556;2023-03-11T08:59:19;91551.25;;;12.56;82.74
10466;BME280;5280;42.600;23.556;2023-03-11T09:01:47;91543.03;;;12.51;80.43
10466;BME280;5280;42.600;23.556;2023-03-11T09:04:14;91544.88;;;12.65;81.59
10466;BME280;5280;42.600;23.556;2023-03-11T09:06:42;91540.16;;;12.75;80.33
10466;BME280;5280;42.600;23.556;2023-03-11T09:09:09;91515.41;;;12.68;76.82
10466;BME280;5280;42.600;23.556;2023-03-11T09:11:37;91537.00;;;12.80;76.19
10466;BME280;5280;42.600;23.556;2023-03-11T09:14:04;91524.53;;;12.80;74.04
10466;BME280;5280;42.600;23.556;2023-03-11T09:16:31;91532.53;;;12.95;73.45
10466;BME280;5280;42.600;23.556;2023-03-11T09:18:59;91511.41;;;13.02;75.63
10466;BME280;5280;42.600;23.556;2023-03-11T09:21:31;91539.13;;;12.99;62.72
10466;BME280;5280;42.600;23.556;2023-03-11T09:23:58;91532.88;;;12.92;63.98
10466;BME280;5280;42.600;23.556;2023-03-11T09:26:26;91522.66;;;12.89;64.18
10466;BME280;5280;42.600;23.556;2023-03-11T09:28:53;91492.44;;;12.75;68.43
10466;BME280;5280;42.600;23.556;2023-03-11T09:31:21;91519.59;;;13.15;69.31
10466;BME280;5280;42.600;23.556;2023-03-11T09:33:48;91512.22;;;13.25;70.21
10466;BME280;5280;42.600;23.556;2023-03-11T09:36:19;91530.94;;;13.38;65.50
10466;BME280;5280;42.600;23.556;2023-03-11T09:38:46;91516.03;;;13.37;65.19
10466;BME280;5280;42.600;23.556;2023-03-11T09:41:22;91526.25;;;13.40;68.61
10466;BME280;5280;42.600;23.556;2023-03-11T09:44:04;91524.16;;;13.50;65.89
10466;BME280;5280;42.600;23.556;2023-03-11T09:49:58;91523.69;;;13.61;66.57
10466;BME280;5280;42.600;23.556;2023-03-11T09:52:35;91521.47;;;13.65;65.46
10466;BME280;5280;42.600;23.556;2023-03-11T09:55:20;91519.56;;;13.73;66.94
10466;BME280;5280;42.600;23.556;2023-03-11T09:57:51;91500.00;;;13.96;61.97
10466;BME280;5280;42.600;23.556;2023-03-11T10:00:22;91513.88;;;14.12;64.28
10466;BME280;5280;42.600;23.556;2023-03-11T10:02:49;91527.38;;;14.32;59.11
10466;BME280;5280;42.600;23.556;2023-03-11T10:05:20;91510.41;;;14.33;57.61
10466;BME280;5280;42.600;23.556;2023-03-11T10:07:53;91525.50;;;14.47;59.84
10466;BME280;5280;42.600;23.556;2023-03-11T10:10:24;91531.72;;;14.54;61.36
10466;BME280;5280;42.600;23.556;2023-03-11T10:13:00;91513.72;;;14.56;59.19
10466;BME280;5280;42.600;23.556;2023-03-11T10:15:38;91509.16;;;14.72;60.39
10466;BME280;5280;42.600;23.556;2023-03-11T10:18:25;91511.31;;;14.83;62.15
10466;BME280;5280;42.600;23.556;2023-03-11T10:20:59;91515.47;;;14.92;58.63
10466;BME280;5280;42.600;23.556;2023-03-11T10:23:35;91516.28;;;14.92;53.11
10466;BME280;5280;42.600;23.556;2023-03-11T10:26:11;91513.69;;;14.99;56.32
10466;BME280;5280;42.600;23.556;2023-03-11T10:28:43;91511.13;;;15.12;52.60
10466;BME280;5280;42.600;23.556;2023-03-11T10:31:19;91509.63;;;15.03;49.97
10466;BME280;5280;42.600;23.556;2023-03-11T10:33:50;91513.94;;;15.04;53.79
10466;BME280;5280;42.600;23.556;2023-03-11T10:36:21;91501.75;;;14.95;53.23
10466;BME280;5280;42.600;23.556;2023-03-11T10:38:53;91499.56;;;14.98;52.34
10466;BME280;5280;42.600;23.556;2023-03-11T10:41:25;91522.00;;;15.17;52.63
10466;BME280;5280;42.600;23.556;2023-03-11T10:43:58;91515.91;;;15.23;51.42
10466;BME280;5280;42.600;23.556;2023-03-11T10:46:27;91505.97;;;15.38;53.32
10466;BME280;5280;42.600;23.556;2023-03-11T10:48:54;91488.72;;;15.34;52.80
10466;BME280;5280;42.600;23.556;2023-03-11T10:51:23;91489.78;;;15.40;52.13
10466;BME280;5280;42.600;23.556;2023-03-11T10:53:54;91494.59;;;15.51;50.52
10466;BME280;5280;42.600;23.556;2023-03-11T10:56:29;91490.84;;;15.45;50.38
10466;BME280;5280;42.600;23.556;2023-03-11T10:58:57;91503.81;;;15.55;47.89
10466;BME280;5280;42.600;23.556;2023-03-11T11:01:25;91502.50;;;15.44;46.41
10466;BME280;5280;42.600;23.556;2023-03-11T11:03:54;91496.34;;;15.37;45.72
10466;BME280;5280;42.600;23.556;2023-03-11T11:06:25;91502.84;;;15.28;48.55
10466;BME280;5280;42.600;23.556;2023-03-11T11:09:15;91499.13;;;15.23;49.39
10466;BME280;5280;42.600;23.556;2023-03-11T11:12:00;91504.13;;;15.11;49.51
10466;BME280;5280;42.600;23.556;2023-03-11T11:14:41;91501.75;;;14.88;52.33
10466;BME280;5280;42.600;23.556;2023-03-11T11:17:18;91510.41;;;14.76;55.52
10466;BME280;5280;42.600;23.556;2023-03-11T11:19:46;91523.50;;;14.49;58.60
10466;BME280;5280;42.600;23.556;2023-03-11T11:22:16;91534.34;;;13.97;59.11
10466;BME280;5280;42.600;23.556;2023-03-11T11:24:47;91570.44;;;13.77;68.85
10466;BME280;5280;42.600;23.556;2023-03-11T11:27:17;91562.34;;;13.34;70.94
10466;BME280;5280;42.600;23.556;2023-03-11T11:29:44;91555.25;;;13.12;75.85
10466;BME280;5280;42.600;23.556;2023-03-11T11:32:18;91536.09;;;12.87;84.72
10466;BME280;5280;42.600;23.556;2023-03-11T11:34:58;91532.00;;;13.00;86.34
10466;BME280;5280;42.600;23.556;2023-03-11T11:37:26;91524.31;;;13.05;85.87
10466;BME280;5280;42.600;23.556;2023-03-11T11:40:00;91505.13;;;13.03;86.83
10466;BME280;5280;42.600;23.556;2023-03-11T11:42:35;91511.94;;;13.20;78.86
10466;BME280;5280;42.600;23.556;2023-03-11T11:45:03;91512.44;;;13.30;86.09
10466;BME280;5280;42.600;23.556;2023-03-11T11:47:35;91514.09;;;13.31;75.75
10466;BME280;5280;42.600;23.556;2023-03-11T11:50:13;91515.75;;;13.32;76.49
10466;BME280;5280;42.600;23.556;2023-03-11T11:52:43;91514.47;;;13.28;71.73
10466;BME280;5280;42.600;23.556;2023-03-11T11:55:19;91507.78;;;13.32;75.06
10466;BME280;5280;42.600;23.556;2023-03-11T11:57:46;91489.94;;;13.41;78.60
10466;BME280;5280;42.600;23.556;2023-03-11T12:00:17;91486.38;;;13.48;84.63
10466;BME280;5280;42.600;23.556;2023-03-11T12:02:58;91478.03;;;13.51;82.63
10466;BME280;5280;42.600;23.556;2023-03-11T12:05:29;91467.31;;;13.74;77.99
10466;BME280;5280;42.600;23.556;2023-03-11T12:08:05;91471.41;;;13.76;73.85
10466;BME280;5280;42.600;23.556;2023-03-11T12:10:41;91475.47;;;13.94;70.87
10466;BME280;5280;42.600;23.556;2023-03-11T12:13:40;91471.88;;;14.01;64.80
10466;BME280;5280;42.600;23.556;2023-03-11T12:16:18;91486.94;;;14.15;71.26
10466;BME280;5280;42.600;23.556;2023-03-11T12:18:51;91470.75;;;14.32;66.41
10466;BME280;5280;42.600;23.556;2023-03-11T12:21:35;91480.16;;;14.49;64.06
10466;BME280;5280;42.600;23.556;2023-03-11T12:24:18;91455.66;;;14.53;59.72
10466;BME280;5280;42.600;23.556;2023-03-11T12:26:53;91455.88;;;14.86;60.12
10466;BME280;5280;42.600;23.556;2023-03-11T12:29:26;91452.75;;;15.04;61.90
10466;BME280;5280;42.600;23.556;2023-03-11T12:31:54;91458.38;;;15.22;53.10
10466;BME280;5280;42.600;23.556;2023-03-11T12:34:22;91467.06;;;15.37;55.08
10466;BME280;5280;42.600;23.556;2023-03-11T12:36:51;91466.06;;;15.45;53.10
10466;BME280;5280;42.600;23.556;2023-03-11T12:39:21;91459.53;;;15.47;51.68
10466;BME280;5280;42.600;23.556;2023-03-11T12:42:14;91467.34;;;15.49;49.34
10466;BME280;5280;42.600;23.556;2023-03-11T12:44:42;91459.59;;;15.54;51.55
10466;BME280;5280;42.600;23.556;2023-03-11T12:47:33;91461.19;;;15.48;52.46
10466;BME280;5280;42.600;23.556;2023-03-11T12:50:37;91466.97;;;15.52;48.40
10466;BME280;5280;42.600;23.556;2023-03-11T12:53:15;91461.56;;;15.45;48.88
10466;BME280;5280;42.600;23.556;2023-03-11T12:55:55;91467.91;;;15.44;48.05
10466;BME280;5280;42.600;23.556;2023-03-11T12:58:52;91466.03;;;15.38;47.09
10466;BME280;5280;42.600;23.556;2023-03-11T13:04:25;91470.44;;;15.25;47.55
10466;BME280;5280;42.600;23.556;2023-03-11T13:10:00;91476.47;;;15.05;47.88
10466;BME280;5280;42.600;23.556;2023-03-11T13:12:41;91467.59;;;14.92;49.43
10466;BME280;5280;42.600;23.556;2023-03-11T13:15:34;91484.97;;;14.94;49.18
10466;BME280;5280;42.600;23.556;2023-03-11T13:18:03;91490.03;;;14.83;51.48
10466;BME280;5280;42.600;23.556;2023-03-11T13:20:45;91485.28;;;14.78;49.13